sensor_id;sensor_type;location;lat;lon;timestamp;temperature;humidity
6377;DHT22;3221;48.858;10.128;2024-03-02T00:01:37;6.00;99.90
6377;DHT22;3221;48.858;10.128;2024-03-02T00:04:05;6.20;99.90
6377;DHT22;3221;48.858;10.128;2024-03-02T00:06:34;6.10;99.90
6377;DHT22;3221;48.858;10.128;2024-03-02T00:09:01;6.00;99.90
6377;DHT22;3221;48.858;10.128;2024-03-02T00:11:29;5.90;99.90
6377;DHT22;3221;48.858;10.128;2024-03-02T00:13:56;5.90;99.90
6377;DHT22;3221;48.858;10.128;2024-03-02T00:16:23;5.80;99.90
6377;DHT22;3221;48.858;10.128;2024-03-02T00:18:51;5.70;99.90
6377;DHT22;3221;48.858;10.128;2024-03-02T00:21:19;5.80;99.90
6377;DHT22;3221;48.858;10.128;2024-03-02T00:23:49;5.70;99.90
6377;DHT22;3221;48.858;10.128;2024-03-02T00:26:19;5.80;99.90
6377;DHT22;3221;48.858;10.128;2024-03-02T00:28:46;5.70;99.90
6377;DHT22;3221;48.858;10.128;2024-03-02T00:31:13;5.80;99.90
6377;DHT22;3221;48.858;10.128;2024-03-02T00:33:44;5.90;99.90
6377;DHT22;3221;48.858;10.128;2024-03-02T00:36:15;5.90;99.90
6377;DHT22;3221;48.858;10.128;2024-03-02T00:38:44;5.80;99.90
6377;DHT22;3221;48.858;10.128;2024-03-02T00:41:38;5.60;99.90
6377;DHT22;3221;48.858;10.128;2024-03-02T00:44:04;5.60;99.90
6377;DHT22;3221;48.858;10.128;2024-03-02T00:46:40;5.50;99.90
6377;DHT22;3221;48.858;10.128;2024-03-02T00:49:23;5.50;99.90
6377;DHT22;3221;48.858;10.128;2024-03-02T00:51:52;5.40;99.90
6377;DHT22;3221;48.858;10.128;2024-03-02T00:54:21;5.40;99.90
6377;DHT22;3221;48.858;10.128;2024-03-02T00:56:53;5.40;99.90
6377;DHT22;3221;48.858;10.128;2024-03-02T00:59:23;5.50;99.90
6377;DHT22;3221;48.858;10.128;2024-03-02T01:01:51;5.40;99.90
6377;DHT22;3221;48.858;10.128;2024-03-02T01:04:18;5.40;99.90
6377;DHT22;3221;48.858;10.128;2024-03-02T01:06:45;5.30;99.90
6377;DHT22;3221;48.858;10.128;2024-03-02T01:09:14;5.30;99.90
6377;DHT22;3221;48.858;10.128;2024-03-02T01:11:42;5.40;99.90
6377;DHT22;3221;48.858;10.128;2024-03-02T01:14:09;5.50;99.90
6377;DHT22;3221;48.858;10.128;2024-03-02T01:16:36;5.50;99.90
6377;DHT22;3221;48.858;10.128;2024-03-02T01:19:03;5.60;99.90
6377;DHT22;3221;48.858;10.128;2024-03-02T01:21:33;5.60;99.90
6377;DHT22;3221;48.858;10.128;2024-03-02T01:24:00;5.60;99.90
6377;DHT22;3221;48.858;10.128;2024-03-02T01:26:28;5.70;99.90
6377;DHT22;3221;48.858;10.128;2024-03-02T01:28:55;5.60;99.90
6377;DHT22;3221;48.858;10.128;2024-03-02T01:31:22;5.40;99.90
6377;DHT22;3221;48.858;10.128;2024-03-02T01:33:50;5.50;99.90
6377;DHT22;3221;48.858;10.128;2024-03-02T01:36:17;5.40;99.90
6377;DHT22;3221;48.858;10.128;2024-03-02T01:38:44;5.70;99.90
6377;DHT22;3221;48.858;10.128;2024-03-02T01:41:11;5.80;99.90
6377;DHT22;3221;48.858;10.128;2024-03-02T01:43:38;6.00;99.90
6377;DHT22;3221;48.858;10.128;2024-03-02T01:46:08;6.00;99.90
6377;DHT22;3221;48.858;10.128;2024-03-02T01:48:36;6.00;99.90
6377;DHT22;3221;48.858;10.128;2024-03-02T01:51:03;6.10;99.90
6377;DHT22;3221;48.858;10.128;2024-03-02T01:53:33;6.00;99.90
6377;DHT22;3221;48.858;10.128;2024-03-02T01:56:00;6.00;99.90
6377;DHT22;3221;48.858;10.128;2024-03-02T01:58:28;5.90;99.90
6377;DHT22;3221;48.858;10.128;2024-03-02T02:00:55;5.80;99.90
6377;DHT22;3221;48.858;10.128;2024-03-02T02:03:22;6.00;99.90
6377;DHT22;3221;48.858;10.128;2024-03-02T02:05:49;5.90;99.90
6377;DHT22;3221;48.858;10.128;2024-03-02T02:08:17;5.90;99.90
6377;DHT22;3221;48.858;10.128;2024-03-02T02:10:44;5.80;99.90
6377;DHT22;3221;48.858;10.128;2024-03-02T02:13:11;5.60;99.90
6377;DHT22;3221;48.858;10.128;2024-03-02T02:15:38;5.60;99.90
6377;DHT22;3221;48.858;10.128;2024-03-02T02:18:05;5.80;99.90
6377;DHT22;3221;48.858;10.128;2024-03-02T02:20:32;6.00;99.90
6377;DHT22;3221;48.858;10.128;2024-03-02T02:23:04;5.90;99.90
6377;DHT22;3221;48.858;10.128;2024-03-02T02:25:32;5.80;99.90
6377;DHT22;3221;48.858;10.128;2024-03-02T02:27:59;5.80;99.90
6377;DHT22;3221;48.858;10.128;2024-03-02T02:30:29;5.90;99.90
6377;DHT22;3221;48.858;10.128;2024-03-02T02:32:56;5.90;99.90
6377;DHT22;3221;48.858;10.128;2024-03-02T02:35:24;5.80;99.90
6377;DHT22;3221;48.858;10.128;2024-03-02T02:37:52;5.90;99.90
6377;DHT22;3221;48.858;10.128;2024-03-02T02:40:20;5.90;99.90
6377;DHT22;3221;48.858;10.128;2024-03-02T02:42:48;5.60;99.90
6377;DHT22;3221;48.858;10.128;2024-03-02T02:45:16;5.60;99.90
6377;DHT22;3221;48.858;10.128;2024-03-02T02:47:44;5.70;99.90
6377;DHT22;3221;48.858;10.128;2024-03-02T02:50:12;5.80;99.90
6377;DHT22;3221;48.858;10.128;2024-03-02T02:52:40;5.80;99.90
6377;DHT22;3221;48.858;10.128;2024-03-02T02:55:12;5.80;99.90
6377;DHT22;3221;48.858;10.128;2024-03-02T02:57:41;5.70;99.90
6377;DHT22;3221;48.858;10.128;2024-03-02T03:00:12;5.80;99.90
6377;DHT22;3221;48.858;10.128;2024-03-02T03:02:47;5.70;99.90
6377;DHT22;3221;48.858;10.128;2024-03-02T03:05:16;5.80;99.90
6377;DHT22;3221;48.858;10.128;2024-03-02T03:07:44;5.90;99.90
6377;DHT22;3221;48.858;10.128;2024-03-02T03:10:12;5.80;99.90
6377;DHT22;3221;48.858;10.128;2024-03-02T03:12:41;5.70;99.90
6377;DHT22;3221;48.858;10.128;2024-03-02T03:15:11;5.90;99.90
6377;DHT22;3221;48.858;10.128;2024-03-02T03:17:38;6.10;99.90
6377;DHT22;3221;48.858;10.128;2024-03-02T03:20:06;6.00;99.90
6377;DHT22;3221;48.858;10.128;2024-03-02T03:22:39;5.90;99.90
6377;DHT22;3221;48.858;10.128;2024-03-02T03:25:07;5.80;99.90
6377;DHT22;3221;48.858;10.128;2024-03-02T03:27:37;5.80;99.90
6377;DHT22;3221;48.858;10.128;2024-03-02T03:30:04;5.80;99.90
6377;DHT22;3221;48.858;10.128;2024-03-02T03:32:33;6.00;99.90
6377;DHT22;3221;48.858;10.128;2024-03-02T03:35:00;6.00;99.90
6377;DHT22;3221;48.858;10.128;2024-03-02T03:37:28;5.90;99.90
6377;DHT22;3221;48.858;10.128;2024-03-02T03:40:02;5.90;99.90
6377;DHT22;3221;48.858;10.128;2024-03-02T03:42:30;5.80;99.90
6377;DHT22;3221;48.858;10.128;2024-03-02T03:44:57;5.70;99.90
6377;DHT22;3221;48.858;10.128;2024-03-02T03:47:24;5.80;99.90
6377;DHT22;3221;48.858;10.128;2024-03-02T03:49:51;5.80;99.90
6377;DHT22;3221;48.858;10.128;2024-03-02T03:52:19;5.80;99.90
6377;DHT22;3221;48.858;10.128;2024-03-02T03:54:46;5.70;99.90
6377;DHT22;3221;48.858;10.128;2024-03-02T03:57:13;5.80;99.90
6377;DHT22;3221;48.858;10.128;2024-03-02T03:59:40;5.60;99.90
6377;DHT22;3221;48.858;10.128;2024-03-02T04:02:07;5.60;99.90
6377;DHT22;3221;48.858;10.128;2024-03-02T04:04:35;6.00;99.90
6377;DHT22;3221;48.858;10.128;2024-03-02T04:07:02;5.90;99.90
6377;DHT22;3221;48.858;10.128;2024-03-02T04:09:29;5.90;99.90
6377;DHT22;3221;48.858;10.128;2024-03-02T04:11:56;5.70;99.90
6377;DHT22;3221;48.858;10.128;2024-03-02T04:14:23;5.50;99.90
6377;DHT22;3221;48.858;10.128;2024-03-02T04:16:50;5.40;99.90
6377;DHT22;3221;48.858;10.128;2024-03-02T04:19:18;5.60;99.90
6377;DHT22;3221;48.858;10.128;2024-03-02T04:21:45;5.40;99.90
6377;DHT22;3221;48.858;10.128;2024-03-02T04:24:12;5.40;99.90
6377;DHT22;3221;48.858;10.128;2024-03-02T04:26:39;5.50;99.90
6377;DHT22;3221;48.858;10.128;2024-03-02T04:29:06;5.40;99.90
6377;DHT22;3221;48.858;10.128;2024-03-02T04:31:33;5.40;99.90
6377;DHT22;3221;48.858;10.128;2024-03-02T04:34:01;5.60;99.90
6377;DHT22;3221;48.858;10.128;2024-03-02T04:36:28;5.60;99.90
6377;DHT22;3221;48.858;10.128;2024-03-02T04:38:55;5.70;99.90
6377;DHT22;3221;48.858;10.128;2024-03-02T04:41:22;5.80;99.90
6377;DHT22;3221;48.858;10.128;2024-03-02T04:43:49;5.70;99.90
6377;DHT22;3221;48.858;10.128;2024-03-02T04:46:16;5.70;99.90
6377;DHT22;3221;48.858;10.128;2024-03-02T04:48:43;5.80;99.90
6377;DHT22;3221;48.858;10.128;2024-03-02T04:51:11;5.60;99.90
6377;DHT22;3221;48.858;10.128;2024-03-02T04:53:38;5.50;99.90
6377;DHT22;3221;48.858;10.128;2024-03-02T04:56:06;5.50;99.90
6377;DHT22;3221;48.858;10.128;2024-03-02T04:58:51;5.50;99.90
6377;DHT22;3221;48.858;10.128;2024-03-02T05:01:18;5.50;99.90
6377;DHT22;3221;48.858;10.128;2024-03-02T05:03:46;5.60;99.90
6377;DHT22;3221;48.858;10.128;2024-03-02T05:06:13;5.50;99.90
6377;DHT22;3221;48.858;10.128;2024-03-02T05:08:40;5.40;99.90
6377;DHT22;3221;48.858;10.128;2024-03-02T05:11:07;5.50;99.90
6377;DHT22;3221;48.858;10.128;2024-03-02T05:13:52;5.40;99.90
6377;DHT22;3221;48.858;10.128;2024-03-02T05:16:19;5.40;99.90
6377;DHT22;3221;48.858;10.128;2024-03-02T05:18:47;5.50;99.90
6377;DHT22;3221;48.858;10.128;2024-03-02T05:21:14;5.50;99.90
6377;DHT22;3221;48.858;10.128;2024-03-02T05:23:43;5.40;99.90
6377;DHT22;3221;48.858;10.128;2024-03-02T05:26:11;5.40;99.90
6377;DHT22;3221;48.858;10.128;2024-03-02T05:28:39;5.50;99.90
6377;DHT22;3221;48.858;10.128;2024-03-02T05:31:06;5.50;99.90
6377;DHT22;3221;48.858;10.128;2024-03-02T05:33:33;5.50;99.90
6377;DHT22;3221;48.858;10.128;2024-03-02T05:36:01;5.40;99.90
6377;DHT22;3221;48.858;10.128;2024-03-02T05:38:28;5.40;99.90
6377;DHT22;3221;48.858;10.128;2024-03-02T05:40:56;5.40;99.90
6377;DHT22;3221;48.858;10.128;2024-03-02T05:43:23;5.70;99.90
6377;DHT22;3221;48.858;10.128;2024-03-02T05:45:50;5.40;99.90
6377;DHT22;3221;48.858;10.128;2024-03-02T05:48:17;5.40;99.90
6377;DHT22;3221;48.858;10.128;2024-03-02T05:50:44;5.60;99.90
6377;DHT22;3221;48.858;10.128;2024-03-02T05:53:11;5.60;99.90
6377;DHT22;3221;48.858;10.128;2024-03-02T05:55:38;5.60;99.90
6377;DHT22;3221;48.858;10.128;2024-03-02T05:58:05;5.60;99.90
6377;DHT22;3221;48.858;10.128;2024-03-02T06:00:33;5.60;99.90
6377;DHT22;3221;48.858;10.128;2024-03-02T06:03:00;5.50;99.90
6377;DHT22;3221;48.858;10.128;2024-03-02T06:05:27;5.60;99.90
6377;DHT22;3221;48.858;10.128;2024-03-02T06:07:54;5.60;99.90
6377;DHT22;3221;48.858;10.128;2024-03-02T06:10:21;5.60;99.90
6377;DHT22;3221;48.858;10.128;2024-03-02T06:12:48;5.60;99.90
6377;DHT22;3221;48.858;10.128;2024-03-02T06:15:17;5.40;99.90
6377;DHT22;3221;48.858;10.128;2024-03-02T06:17:44;5.40;99.90
6377;DHT22;3221;48.858;10.128;2024-03-02T06:20:11;5.30;99.90
6377;DHT22;3221;48.858;10.128;2024-03-02T06:22:38;5.20;99.90
6377;DHT22;3221;48.858;10.128;2024-03-02T06:25:06;5.20;99.90
6377;DHT22;3221;48.858;10.128;2024-03-02T06:27:33;5.20;99.90
6377;DHT22;3221;48.858;10.128;2024-03-02T06:30:00;5.20;99.90
6377;DHT22;3221;48.858;10.128;2024-03-02T06:32:27;5.20;99.90
6377;DHT22;3221;48.858;10.128;2024-03-02T06:34:54;5.20;99.90
6377;DHT22;3221;48.858;10.128;2024-03-02T06:37:21;5.20;99.90
6377;DHT22;3221;48.858;10.128;2024-03-02T06:39:48;5.20;99.90
6377;DHT22;3221;48.858;10.128;2024-03-02T06:42:15;5.40;99.90
6377;DHT22;3221;48.858;10.128;2024-03-02T06:44:44;5.30;99.90
6377;DHT22;3221;48.858;10.128;2024-03-02T06:47:11;5.20;99.90
6377;DHT22;3221;48.858;10.128;2024-03-02T06:49:38;5.30;99.90
6377;DHT22;3221;48.858;10.128;2024-03-02T06:52:05;5.30;99.90
6377;DHT22;3221;48.858;10.128;2024-03-02T06:54:33;5.30;99.90
6377;DHT22;3221;48.858;10.128;2024-03-02T06:57:01;5.30;99.90
6377;DHT22;3221;48.858;10.128;2024-03-02T06:59:29;5.10;99.90
6377;DHT22;3221;48.858;10.128;2024-03-02T07:01:56;5.30;99.90
6377;DHT22;3221;48.858;10.128;2024-03-02T07:04:23;5.30;99.90
6377;DHT22;3221;48.858;10.128;2024-03-02T07:06:51;5.40;99.90
6377;DHT22;3221;48.858;10.128;2024-03-02T07:09:18;5.30;99.90
6377;DHT22;3221;48.858;10.128;2024-03-02T07:11:45;5.40;99.90
6377;DHT22;3221;48.858;10.128;2024-03-02T07:14:15;5.50;99.90
6377;DHT22;3221;48.858;10.128;2024-03-02T07:16:43;5.40;99.90
6377;DHT22;3221;48.858;10.128;2024-03-02T07:19:10;5.40;99.90
6377;DHT22;3221;48.858;10.128;2024-03-02T07:21:37;5.50;99.90
6377;DHT22;3221;48.858;10.128;2024-03-02T07:24:04;5.50;99.90
6377;DHT22;3221;48.858;10.128;2024-03-02T07:26:32;5.60;99.90
6377;DHT22;3221;48.858;10.128;2024-03-02T07:29:03;5.60;99.90
6377;DHT22;3221;48.858;10.128;2024-03-02T07:31:31;5.70;99.90
6377;DHT22;3221;48.858;10.128;2024-03-02T07:33:58;5.70;99.90
6377;DHT22;3221;48.858;10.128;2024-03-02T07:36:25;5.80;99.90
6377;DHT22;3221;48.858;10.128;2024-03-02T07:38:52;5.90;99.90
6377;DHT22;3221;48.858;10.128;2024-03-02T07:41:19;5.90;99.90
6377;DHT22;3221;48.858;10.128;2024-03-02T07:43:46;5.90;99.90
6377;DHT22;3221;48.858;10.128;2024-03-02T07:46:13;6.00;99.90
6377;DHT22;3221;48.858;10.128;2024-03-02T07:48:42;6.00;99.90
6377;DHT22;3221;48.858;10.128;2024-03-02T07:51:09;6.10;99.90
6377;DHT22;3221;48.858;10.128;2024-03-02T07:53:36;6.10;99.90
6377;DHT22;3221;48.858;10.128;2024-03-02T07:56:04;6.30;99.90
6377;DHT22;3221;48.858;10.128;2024-03-02T07:58:33;6.10;99.90
6377;DHT22;3221;48.858;10.128;2024-03-02T08:01:02;6.30;99.90
6377;DHT22;3221;48.858;10.128;2024-03-02T08:03:29;6.30;99.90
6377;DHT22;3221;48.858;10.128;2024-03-02T08:05:59;6.30;99.90
6377;DHT22;3221;48.858;10.128;2024-03-02T08:08:29;6.50;99.90
6377;DHT22;3221;48.858;10.128;2024-03-02T08:10:59;6.50;99.90
6377;DHT22;3221;48.858;10.128;2024-03-02T08:13:28;6.40;99.90
6377;DHT22;3221;48.858;10.128;2024-03-02T08:15:58;6.50;99.90
6377;DHT22;3221;48.858;10.128;2024-03-02T08:18:25;6.50;99.90
6377;DHT22;3221;48.858;10.128;2024-03-02T08:20:55;6.50;99.90
6377;DHT22;3221;48.858;10.128;2024-03-02T08:23:24;6.60;99.90
6377;DHT22;3221;48.858;10.128;2024-03-02T08:25:51;6.60;99.90
6377;DHT22;3221;48.858;10.128;2024-03-02T08:28:18;6.60;99.90
6377;DHT22;3221;48.858;10.128;2024-03-02T08:30:46;6.60;99.90
6377;DHT22;3221;48.858;10.128;2024-03-02T08:33:13;6.70;99.90
6377;DHT22;3221;48.858;10.128;2024-03-02T08:35:41;6.70;99.90
6377;DHT22;3221;48.858;10.128;2024-03-02T08:38:10;6.70;99.90
6377;DHT22;3221;48.858;10.128;2024-03-02T08:40:37;6.80;99.90
6377;DHT22;3221;48.858;10.128;2024-03-02T08:43:04;7.00;99.90
6377;DHT22;3221;48.858;10.128;2024-03-02T08:45:32;6.80;99.90
6377;DHT22;3221;48.858;10.128;2024-03-02T08:48:00;6.90;99.90
6377;DHT22;3221;48.858;10.128;2024-03-02T08:50:28;6.90;99.90
6377;DHT22;3221;48.858;10.128;2024-03-02T08:52:55;6.90;99.90
6377;DHT22;3221;48.858;10.128;2024-03-02T08:55:22;7.00;99.90
6377;DHT22;3221;48.858;10.128;2024-03-02T08:57:49;7.10;99.90
6377;DHT22;3221;48.858;10.128;2024-03-02T09:00:17;7.00;99.90
6377;DHT22;3221;48.858;10.128;2024-03-02T09:02:45;7.10;99.90
6377;DHT22;3221;48.858;10.128;2024-03-02T09:05:13;7.20;99.90
6377;DHT22;3221;48.858;10.128;2024-03-02T09:07:39;7.10;99.90
6377;DHT22;3221;48.858;10.128;2024-03-02T09:10:07;7.10;99.90
6377;DHT22;3221;48.858;10.128;2024-03-02T09:12:35;7.30;99.90
6377;DHT22;3221;48.858;10.128;2024-03-02T09:15:02;7.40;99.90
6377;DHT22;3221;48.858;10.128;2024-03-02T09:17:30;7.30;99.90
6377;DHT22;3221;48.858;10.128;2024-03-02T09:19:57;7.20;99.90
6377;DHT22;3221;48.858;10.128;2024-03-02T09:22:24;7.30;99.90
6377;DHT22;3221;48.858;10.128;2024-03-02T09:24:51;7.30;99.90
6377;DHT22;3221;48.858;10.128;2024-03-02T09:27:18;7.40;99.90
6377;DHT22;3221;48.858;10.128;2024-03-02T09:29:45;7.30;99.90
6377;DHT22;3221;48.858;10.128;2024-03-02T09:32:15;7.40;99.90
6377;DHT22;3221;48.858;10.128;2024-03-02T09:34:42;7.40;99.90
6377;DHT22;3221;48.858;10.128;2024-03-02T09:37:10;7.70;99.90
6377;DHT22;3221;48.858;10.128;2024-03-02T09:39:37;7.90;99.90
6377;DHT22;3221;48.858;10.128;2024-03-02T09:42:04;8.00;99.90
6377;DHT22;3221;48.858;10.128;2024-03-02T09:44:33;8.20;99.90
6377;DHT22;3221;48.858;10.128;2024-03-02T09:47:00;8.30;99.90
6377;DHT22;3221;48.858;10.128;2024-03-02T09:49:27;8.60;99.90
6377;DHT22;3221;48.858;10.128;2024-03-02T09:51:54;8.50;99.90
6377;DHT22;3221;48.858;10.128;2024-03-02T09:54:22;8.80;99.90
6377;DHT22;3221;48.858;10.128;2024-03-02T09:56:50;8.90;99.90
6377;DHT22;3221;48.858;10.128;2024-03-02T09:59:17;9.00;99.90
6377;DHT22;3221;48.858;10.128;2024-03-02T10:02:00;9.20;99.90
6377;DHT22;3221;48.858;10.128;2024-03-02T10:04:28;9.30;99.90
6377;DHT22;3221;48.858;10.128;2024-03-02T10:07:13;9.40;99.90
6377;DHT22;3221;48.858;10.128;2024-03-02T10:09:48;9.60;99.90
6377;DHT22;3221;48.858;10.128;2024-03-02T10:12:16;9.60;99.90
6377;DHT22;3221;48.858;10.128;2024-03-02T10:14:44;9.80;99.90
6377;DHT22;3221;48.858;10.128;2024-03-02T10:17:12;10.00;99.90
6377;DHT22;3221;48.858;10.128;2024-03-02T10:19:40;10.00;99.90
6377;DHT22;3221;48.858;10.128;2024-03-02T10:22:08;10.30;99.90
6377;DHT22;3221;48.858;10.128;2024-03-02T10:24:40;10.20;99.90
6377;DHT22;3221;48.858;10.128;2024-03-02T10:27:17;10.20;99.90
6377;DHT22;3221;48.858;10.128;2024-03-02T10:29:47;10.20;99.90
6377;DHT22;3221;48.858;10.128;2024-03-02T10:32:16;10.10;99.90
6377;DHT22;3221;48.858;10.128;2024-03-02T10:34:45;10.10;99.90
6377;DHT22;3221;48.858;10.128;2024-03-02T10:37:12;10.10;99.90
6377;DHT22;3221;48.858;10.128;2024-03-02T10:39:40;10.10;99.90
6377;DHT22;3221;48.858;10.128;2024-03-02T10:42:08;10.10;99.90
6377;DHT22;3221;48.858;10.128;2024-03-02T10:44:35;10.20;99.90
6377;DHT22;3221;48.858;10.128;2024-03-02T10:47:04;10.20;99.90
6377;DHT22;3221;48.858;10.128;2024-03-02T10:49:32;10.20;99.90
6377;DHT22;3221;48.858;10.128;2024-03-02T10:51:59;10.30;99.90
6377;DHT22;3221;48.858;10.128;2024-03-02T10:54:27;10.30;99.90
6377;DHT22;3221;48.858;10.128;2024-03-02T10:56:59;10.40;99.90
6377;DHT22;3221;48.858;10.128;2024-03-02T10:59:33;10.30;99.90
6377;DHT22;3221;48.858;10.128;2024-03-02T11:02:01;10.30;99.90
6377;DHT22;3221;48.858;10.128;2024-03-02T11:04:32;10.40;99.90
6377;DHT22;3221;48.858;10.128;2024-03-02T11:07:03;10.40;99.90
6377;DHT22;3221;48.858;10.128;2024-03-02T11:09:34;10.60;99.90
6377;DHT22;3221;48.858;10.128;2024-03-02T11:12:24;10.60;99.90
6377;DHT22;3221;48.858;10.128;2024-03-02T11:14:54;10.60;99.90
6377;DHT22;3221;48.858;10.128;2024-03-02T11:17:23;10.60;99.90
6377;DHT22;3221;48.858;10.128;2024-03-02T11:19:51;10.50;99.90
6377;DHT22;3221;48.858;10.128;2024-03-02T11:22:19;10.50;99.90
6377;DHT22;3221;48.858;10.128;2024-03-02T11:24:50;10.60;99.90
6377;DHT22;3221;48.858;10.128;2024-03-02T11:33:04;10.60;99.90
6377;DHT22;3221;48.858;10.128;2024-03-02T11:35:41;10.60;99.90
6377;DHT22;3221;48.858;10.128;2024-03-02T11:38:14;10.60;99.90
6377;DHT22;3221;48.858;10.128;2024-03-02T11:40:42;10.60;99.90
6377;DHT22;3221;48.858;10.128;2024-03-02T11:43:10;10.40;99.90
6377;DHT22;3221;48.858;10.128;2024-03-02T11:45:38;10.50;99.90
6377;DHT22;3221;48.858;10.128;2024-03-02T11:48:14;10.60;99.90
6377;DHT22;3221;48.858;10.128;2024-03-02T11:50:47;10.70;99.90
6377;DHT22;3221;48.858;10.128;2024-03-02T11:53:16;10.80;99.90
6377;DHT22;3221;48.858;10.128;2024-03-02T11:55:44;10.90;99.90
6377;DHT22;3221;48.858;10.128;2024-03-02T11:58:17;11.10;99.90
6377;DHT22;3221;48.858;10.128;2024-03-02T12:00:50;11.20;99.90
6377;DHT22;3221;48.858;10.128;2024-03-02T12:03:18;11.40;99.90
6377;DHT22;3221;48.858;10.128;2024-03-02T12:05:50;11.50;99.90
6377;DHT22;3221;48.858;10.128;2024-03-02T12:08:17;11.60;99.90
6377;DHT22;3221;48.858;10.128;2024-03-02T12:10:59;11.80;99.90
6377;DHT22;3221;48.858;10.128;2024-03-02T12:13:28;11.90;99.90
6377;DHT22;3221;48.858;10.128;2024-03-02T12:15:55;11.90;99.90
6377;DHT22;3221;48.858;10.128;2024-03-02T12:18:26;12.00;99.90
6377;DHT22;3221;48.858;10.128;2024-03-02T12:20:53;12.00;99.90
6377;DHT22;3221;48.858;10.128;2024-03-02T12:23:25;12.10;99.90
6377;DHT22;3221;48.858;10.128;2024-03-02T12:25:52;12.10;99.90
6377;DHT22;3221;48.858;10.128;2024-03-02T12:28:19;12.30;99.90
6377;DHT22;3221;48.858;10.128;2024-03-02T12:30:46;12.20;99.90
6377;DHT22;3221;48.858;10.128;2024-03-02T12:33:14;12.30;99.90
6377;DHT22;3221;48.858;10.128;2024-03-02T12:35:41;12.40;99.90
6377;DHT22;3221;48.858;10.128;2024-03-02T12:38:09;12.40;99.90
6377;DHT22;3221;48.858;10.128;2024-03-02T12:40:37;12.40;99.90
6377;DHT22;3221;48.858;10.128;2024-03-02T12:43:05;12.50;99.90
6377;DHT22;3221;48.858;10.128;2024-03-02T12:45:34;12.60;99.90
6377;DHT22;3221;48.858;10.128;2024-03-02T12:48:01;12.70;99.90
6377;DHT22;3221;48.858;10.128;2024-03-02T12:50:29;12.70;99.90
6377;DHT22;3221;48.858;10.128;2024-03-02T12:52:56;12.70;99.90
6377;DHT22;3221;48.858;10.128;2024-03-02T12:55:23;12.90;99.90
6377;DHT22;3221;48.858;10.128;2024-03-02T12:57:53;12.80;99.90
6377;DHT22;3221;48.858;10.128;2024-03-02T13:00:21;12.80;99.90
6377;DHT22;3221;48.858;10.128;2024-03-02T13:02:50;12.90;99.90
6377;DHT22;3221;48.858;10.128;2024-03-02T13:05:19;12.90;99.90
6377;DHT22;3221;48.858;10.128;2024-03-02T13:07:48;12.90;99.90
6377;DHT22;3221;48.858;10.128;2024-03-02T13:10:16;12.90;99.90
6377;DHT22;3221;48.858;10.128;2024-03-02T13:12:45;12.90;99.90
6377;DHT22;3221;48.858;10.128;2024-03-02T13:15:12;12.90;99.90
6377;DHT22;3221;48.858;10.128;2024-03-02T13:17:44;12.90;99.90
6377;DHT22;3221;48.858;10.128;2024-03-02T13:20:13;12.90;99.90
6377;DHT22;3221;48.858;10.128;2024-03-02T13:22:41;12.90;99.90
6377;DHT22;3221;48.858;10.128;2024-03-02T13:25:08;13.00;99.90
6377;DHT22;3221;48.858;10.128;2024-03-02T13:27:37;13.00;99.90
6377;DHT22;3221;48.858;10.128;2024-03-02T13:30:05;13.00;99.90
6377;DHT22;3221;48.858;10.128;2024-03-02T13:32:32;13.10;99.90
6377;DHT22;3221;48.858;10.128;2024-03-02T13:34:59;13.10;99.90
6377;DHT22;3221;48.858;10.128;2024-03-02T13:37:27;13.10;99.90
6377;DHT22;3221;48.858;10.128;2024-03-02T13:39:54;13.10;99.90
6377;DHT22;3221;48.858;10.128;2024-03-02T13:42:21;13.10;99.90
6377;DHT22;3221;48.858;10.128;2024-03-02T13:44:49;13.10;99.90
6377;DHT22;3221;48.858;10.128;2024-03-02T13:47:17;13.10;99.90
6377;DHT22;3221;48.858;10.128;2024-03-02T13:49:44;13.20;99.90
6377;DHT22;3221;48.858;10.128;2024-03-02T13:52:13;13.20;99.90
6377;DHT22;3221;48.858;10.128;2024-03-02T13:54:41;13.20;99.90
6377;DHT22;3221;48.858;10.128;2024-03-02T13:57:09;13.20;99.90
6377;DHT22;3221;48.858;10.128;2024-03-02T13:59:37;13.30;99.90
6377;DHT22;3221;48.858;10.128;2024-03-02T14:02:05;13.20;99.90
6377;DHT22;3221;48.858;10.128;2024-03-02T14:04:36;13.20;99.90
6377;DHT22;3221;48.858;10.128;2024-03-02T14:07:05;13.20;99.90
6377;DHT22;3221;48.858;10.128;2024-03-02T14:09:35;13.20;99.90
6377;DHT22;3221;48.858;10.128;2024-03-02T14:12:04;13.30;99.90
6377;DHT22;3221;48.858;10.128;2024-03-02T14:14:31;13.30;99.90
6377;DHT22;3221;48.858;10.128;2024-03-02T14:17:00;13.30;99.90
6377;DHT22;3221;48.858;10.128;2024-03-02T14:19:33;13.30;99.90
6377;DHT22;3221;48.858;10.128;2024-03-02T14:22:00;13.30;99.90
6377;DHT22;3221;48.858;10.128;2024-03-02T14:24:27;13.30;99.90
6377;DHT22;3221;48.858;10.128;2024-03-02T14:26:56;13.30;99.90
6377;DHT22;3221;48.858;10.128;2024-03-02T14:29:43;13.30;99.90
6377;DHT22;3221;48.858;10.128;2024-03-02T14:32:10;13.30;99.90
6377;DHT22;3221;48.858;10.128;2024-03-02T14:34:37;13.30;99.90
6377;DHT22;3221;48.858;10.128;2024-03-02T14:37:06;13.30;99.90
6377;DHT22;3221;48.858;10.128;2024-03-02T14:39:33;13.30;99.90
6377;DHT22;3221;48.858;10.128;2024-03-02T14:42:01;13.30;99.90
6377;DHT22;3221;48.858;10.128;2024-03-02T14:44:28;13.30;99.90
6377;DHT22;3221;48.858;10.128;2024-03-02T14:46:56;13.20;99.90
6377;DHT22;3221;48.858;10.128;2024-03-02T14:49:25;13.20;99.90
6377;DHT22;3221;48.858;10.128;2024-03-02T14:51:52;13.20;99.90
6377;DHT22;3221;48.858;10.128;2024-03-02T14:54:19;13.20;99.90
6377;DHT22;3221;48.858;10.128;2024-03-02T14:56:46;13.10;99.90
6377;DHT22;3221;48.858;10.128;2024-03-02T14:59:13;13.00;99.90
6377;DHT22;3221;48.858;10.128;2024-03-02T15:01:40;13.00;99.90
6377;DHT22;3221;48.858;10.128;2024-03-02T15:04:07;13.00;99.90
6377;DHT22;3221;48.858;10.128;2024-03-02T15:06:34;12.90;99.90
6377;DHT22;3221;48.858;10.128;2024-03-02T15:09:01;12.90;99.90
6377;DHT22;3221;48.858;10.128;2024-03-02T15:11:28;13.00;99.90
6377;DHT22;3221;48.858;10.128;2024-03-02T15:13:56;13.00;99.90
6377;DHT22;3221;48.858;10.128;2024-03-02T15:16:23;13.00;99.90
6377;DHT22;3221;48.858;10.128;2024-03-02T15:18:51;13.00;99.90
6377;DHT22;3221;48.858;10.128;2024-03-02T15:21:18;12.90;99.90
6377;DHT22;3221;48.858;10.128;2024-03-02T15:23:47;12.80;99.90
6377;DHT22;3221;48.858;10.128;2024-03-02T15:26:14;12.80;99.90
6377;DHT22;3221;48.858;10.128;2024-03-02T15:28:42;12.70;99.90
6377;DHT22;3221;48.858;10.128;2024-03-02T15:31:09;12.80;99.90
6377;DHT22;3221;48.858;10.128;2024-03-02T15:33:36;12.70;99.90
6377;DHT22;3221;48.858;10.128;2024-03-02T15:36:03;12.60;99.90
6377;DHT22;3221;48.858;10.128;2024-03-02T15:38:31;12.50;99.90
6377;DHT22;3221;48.858;10.128;2024-03-02T15:41:04;12.50;99.90
6377;DHT22;3221;48.858;10.128;2024-03-02T15:43:31;12.40;99.90
6377;DHT22;3221;48.858;10.128;2024-03-02T15:45:58;12.20;99.90
6377;DHT22;3221;48.858;10.128;2024-03-02T15:48:26;12.00;99.90
6377;DHT22;3221;48.858;10.128;2024-03-02T15:50:53;11.90;99.90
6377;DHT22;3221;48.858;10.128;2024-03-02T15:53:23;11.80;99.90
6377;DHT22;3221;48.858;10.128;2024-03-02T15:55:51;11.80;99.90
6377;DHT22;3221;48.858;10.128;2024-03-02T15:58:18;11.70;99.90
6377;DHT22;3221;48.858;10.128;2024-03-02T16:00:45;11.60;99.90
6377;DHT22;3221;48.858;10.128;2024-03-02T16:03:12;11.60;99.90
6377;DHT22;3221;48.858;10.128;2024-03-02T16:05:39;11.40;99.90
6377;DHT22;3221;48.858;10.128;2024-03-02T16:08:06;11.40;99.90